Time;durP1;ratioP1;P1;durP2;ratioP2;P2;SDS_P1;SDS_P2;PMS_P1;PMS_P2;Temp;Humidity;BMP_temperature;BMP_pressure;BME280_temperature;BME280_humidity;BME280_pressure;Samples;Min_cycle;Max_cycle;Signal;HPM_P1;HPM_P2
2022/05/05 00:01:47;;;;;;;6.00;4.80;;;;;;;11.19;nan;95417.31;5000754;28;20269;-73
2022/05/05 00:04:14;;;;;;;5.05;4.32;;;;;;;11.25;nan;95404.41;5003412;28;20239;-72
2022/05/05 00:06:41;;;;;;;4.22;3.92;;;;;;;11.32;nan;95416.06;5002240;28;20289;-72
2022/05/05 00:09:07;;;;;;;5.53;4.95;;;;;;;11.43;nan;95414.00;5002173;28;20587;-72
2022/05/05 00:14:27;;;;;;;5.75;4.05;;;;;;;10.88;nan;95414.88;5003984;28;20210;-73
2022/05/05 00:16:58;;;;;;;6.95;4.63;;;;;;;10.92;nan;95416.41;4999130;28;20231;-72
2022/05/05 00:19:26;;;;;;;5.55;5.05;;;;;;;11.00;nan;95414.47;5001644;28;20209;-74
2022/05/05 00:21:53;;;;;;;5.88;5.22;;;;;;;11.15;nan;95405.56;5003956;28;20270;-74
2022/05/05 00:24:20;;;;;;;4.53;4.20;;;;;;;11.16;nan;95402.13;4999627;28;20731;-73
2022/05/05 00:26:47;;;;;;;4.70;4.40;;;;;;;11.03;nan;95399.13;5000899;28;20287;-73
2022/05/05 00:29:15;;;;;;;4.50;4.20;;;;;;;11.18;nan;95411.38;5003682;28;20604;-73
2022/05/05 00:31:43;;;;;;;4.53;4.22;;;;;;;11.20;nan;95402.00;5001578;28;20211;-73
2022/05/05 00:34:10;;;;;;;5.30;4.20;;;;;;;11.25;nan;95405.25;5003193;28;20267;-73
2022/05/05 00:36:38;;;;;;;4.78;4.47;;;;;;;11.21;nan;95403.66;5002111;28;20273;-73
2022/05/05 00:39:06;;;;;;;4.47;4.18;;;;;;;11.37;nan;95419.31;5003457;28;20208;-72
2022/05/05 00:41:34;;;;;;;4.55;4.22;;;;;;;11.21;nan;95407.91;5003668;28;20676;-71
2022/05/05 00:44:02;;;;;;;5.63;4.75;;;;;;;11.01;nan;95410.22;5006009;28;20213;-73
2022/05/05 00:46:29;;;;;;;5.88;5.38;;;;;;;11.10;nan;95409.97;5004820;28;20262;-72
2022/05/05 00:48:57;;;;;;;4.93;4.43;;;;;;;10.94;nan;95404.47;5000888;28;20234;-74
2022/05/05 00:51:24;;;;;;;6.00;5.25;;;;;;;10.81;nan;95409.13;5001140;28;20647;-72
2022/05/05 00:53:51;;;;;;;6.38;5.18;;;;;;;10.77;nan;95412.63;5002553;28;20242;-72
2022/05/05 00:56:18;;;;;;;5.47;5.10;;;;;;;10.72;nan;95414.44;5002410;28;20219;-73
2022/05/05 00:58:46;;;;;;;6.65;5.20;;;;;;;10.38;nan;95416.28;5002812;28;20208;-72
2022/05/05 01:01:17;;;;;;;5.47;5.07;;;;;;;10.34;nan;95412.97;5001604;28;20632;-73
2022/05/05 01:03:45;;;;;;;5.03;4.60;;;;;;;10.27;nan;95411.47;5000533;28;20297;-73
2022/05/05 01:06:14;;;;;;;4.93;4.53;;;;;;;10.33;nan;95416.41;4999570;28;20703;-73
2022/05/05 01:08:41;;;;;;;5.05;4.65;;;;;;;10.39;nan;95413.69;5000591;28;20228;-74
2022/05/05 01:11:08;;;;;;;6.45;5.72;;;;;;;10.55;nan;95411.56;5000960;28;20332;-74
2022/05/05 01:13:38;;;;;;;5.70;5.30;;;;;;;10.31;nan;95417.31;4999719;28;20204;-72
2022/05/05 01:16:06;;;;;;;5.40;4.80;;;;;;;10.37;nan;95414.63;5001784;28;20317;-74
2022/05/05 01:18:33;;;;;;;7.10;5.13;;;;;;;10.21;nan;95407.38;5001488;28;20231;-73
2022/05/05 01:21:00;;;;;;;4.97;4.68;;;;;;;10.14;nan;95418.56;5001959;28;20199;-73
2022/05/05 01:23:28;;;;;;;5.38;4.88;;;;;;;10.35;nan;95417.19;5008184;28;20223;-74
2022/05/05 01:28:43;;;;;;;5.70;5.20;;;;;;;10.48;nan;95420.22;5001220;28;20257;-73
2022/05/05 01:31:09;;;;;;;7.43;4.93;;;;;;;10.65;nan;95423.13;5002233;28;20207;-73
2022/05/05 01:33:37;;;;;;;6.45;4.65;;;;;;;10.59;nan;95415.69;5002643;28;20261;-74
2022/05/05 01:36:04;;;;;;;4.97;4.57;;;;;;;10.54;nan;95415.81;5003242;28;20262;-74
2022/05/05 01:38:37;;;;;;;5.45;5.10;;;;;;;10.63;nan;95424.06;5004261;28;20703;-73
2022/05/05 01:41:05;;;;;;;7.00;5.97;;;;;;;10.45;nan;95431.28;5002176;28;20307;-73
2022/05/05 01:43:31;;;;;;;5.70;5.13;;;;;;;10.43;nan;95427.13;5002043;28;20203;-74
2022/05/05 01:45:58;;;;;;;5.05;4.65;;;;;;;10.36;nan;95426.47;5003055;28;20231;-72
2022/05/05 01:48:25;;;;;;;5.95;5.40;;;;;;;10.40;nan;95411.97;5003218;28;20227;-74
2022/05/05 01:50:52;;;;;;;6.65;4.80;;;;;;;10.50;nan;95428.63;5005942;28;20227;-73
2022/05/05 01:53:18;;;;;;;6.10;5.25;;;;;;;10.42;nan;95430.53;5007076;28;20667;-75
2022/05/05 01:55:46;;;;;;;5.65;4.90;;;;;;;10.51;nan;95426.06;5006564;28;20342;-72
2022/05/05 01:58:13;;;;;;;5.47;4.97;;;;;;;10.46;nan;95437.22;5005637;28;20277;-75
2022/05/05 02:00:40;;;;;;;6.72;5.88;;;;;;;10.41;nan;95441.56;5007083;28;20235;-74
2022/05/05 02:03:12;;;;;;;5.22;4.82;;;;;;;10.54;nan;95435.31;5006687;28;20234;-76
2022/05/05 02:05:40;;;;;;;5.32;4.78;;;;;;;10.52;nan;95442.97;5005646;28;20199;-75
2022/05/05 02:08:07;;;;;;;5.35;4.95;;;;;;;10.56;nan;95439.47;5005382;28;20235;-75
2022/05/05 02:10:34;;;;;;;5.53;5.03;;;;;;;10.44;nan;95444.88;5006679;28;20233;-74
2022/05/05 02:13:03;;;;;;;5.22;4.55;;;;;;;10.37;nan;95433.22;5006895;28;20192;-74
2022/05/05 02:15:30;;;;;;;5.57;5.07;;;;;;;10.20;nan;95443.81;5006350;28;20239;-74
2022/05/05 02:17:57;;;;;;;5.05;4.70;;;;;;;10.16;nan;95439.66;5005025;28;20214;-75
2022/05/05 02:20:24;;;;;;;4.93;4.47;;;;;;;9.83;nan;95440.53;5007574;28;20204;-75
2022/05/05 02:22:50;;;;;;;6.40;5.32;;;;;;;9.87;nan;95434.50;5006256;28;20377;-74
2022/05/05 02:25:17;;;;;;;7.72;4.57;;;;;;;10.19;nan;95434.53;5005457;28;20651;-76
2022/05/05 02:27:52;;;;;;;6.57;5.97;;;;;;;10.28;nan;95447.88;5005847;28;20328;-74
2022/05/05 02:30:21;;;;;;;5.78;4.75;;;;;;;10.26;nan;95447.91;5008125;28;20659;-74
2022/05/05 02:32:48;;;;;;;6.28;5.63;;;;;;;10.10;nan;95447.44;5005602;28;20698;-75
2022/05/05 02:35:15;;;;;;;4.90;4.50;;;;;;;9.90;nan;95447.09;5006514;28;20200;-75
2022/05/05 02:40:27;;;;;;;5.75;5.18;;;;;;;10.11;nan;95451.66;5006141;28;20319;-74
2022/05/05 02:42:55;;;;;;;5.38;4.97;;;;;;;10.07;nan;95455.13;5005634;28;20239;-76
2022/05/05 02:45:24;;;;;;;6.22;5.40;;;;;;;10.17;nan;95448.09;5005059;28;20291;-75
2022/05/05 02:47:51;;;;;;;8.68;6.57;;;;;;;10.25;nan;95440.31;5005532;28;20206;-75
2022/05/05 02:50:18;;;;;;;8.93;6.97;;;;;;;10.19;nan;95454.84;5005200;28;20285;-74
2022/05/05 02:52:45;;;;;;;8.07;6.97;;;;;;;10.02;nan;95458.66;5005151;28;20325;-75
2022/05/05 02:55:11;;;;;;;7.68;6.90;;;;;;;10.05;nan;95459.41;5005374;28;20240;-75
2022/05/05 02:57:38;;;;;;;8.20;7.43;;;;;;;10.07;nan;95469.53;5004661;28;20287;-74
2022/05/05 03:00:07;;;;;;;8.55;7.15;;;;;;;9.76;nan;95470.28;5006162;28;20216;-75
2022/05/05 03:02:35;;;;;;;10.70;8.63;;;;;;;9.75;nan;95473.69;5003528;28;20755;-75
2022/05/05 03:05:02;;;;;;;12.05;8.70;;;;;;;10.05;nan;95477.19;5005842;28;20255;-75
2022/05/05 03:07:29;;;;;;;13.90;8.35;;;;;;;9.81;nan;95478.63;5006633;28;20227;-74
2022/05/05 03:09:56;;;;;;;11.85;9.30;;;;;;;9.77;nan;95486.34;5006608;28;20235;-74
2022/05/05 03:12:23;;;;;;;11.45;8.55;;;;;;;9.96;nan;95487.56;5004108;28;20204;-75
2022/05/05 03:14:50;;;;;;;12.55;9.05;;;;;;;9.96;nan;95492.66;5004533;28;20215;-75
2022/05/05 03:17:16;;;;;;;14.82;9.55;;;;;;;9.84;nan;95490.41;5004117;28;20200;-75
2022/05/05 03:19:44;;;;;;;15.40;8.95;;;;;;;9.32;nan;95490.78;5005192;28;20235;-74
2022/05/05 03:22:11;;;;;;;11.90;8.45;;;;;;;9.02;nan;95490.56;5003236;28;20549;-74
2022/05/05 03:24:38;;;;;;;12.10;9.73;;;;;;;8.94;nan;95494.94;5003092;28;20219;-75
2022/05/05 03:27:05;;;;;;;11.65;8.48;;;;;;;9.01;nan;95488.03;5001346;28;21103;-75
2022/05/05 03:29:32;;;;;;;14.68;9.93;;;;;;;9.28;nan;95492.53;5004340;28;20312;-76
2022/05/05 03:31:59;;;;;;;13.70;10.00;;;;;;;9.61;nan;95485.06;5002465;28;20204;-75
2022/05/05 03:34:26;;;;;;;12.13;9.25;;;;;;;9.96;nan;95496.88;5005294;28;20240;-74
2022/05/05 03:36:54;;;;;;;13.88;8.85;;;;;;;9.92;nan;95493.59;5004441;28;20270;-74
2022/05/05 03:39:21;;;;;;;18.48;9.70;;;;;;;10.07;nan;95495.78;5005050;28;20281;-75
2022/05/05 03:41:48;;;;;;;16.27;10.02;;;;;;;9.90;nan;95502.94;5003653;28;20317;-75
2022/05/05 03:44:14;;;;;;;10.40;8.90;;;;;;;9.52;nan;95512.28;5005666;28;20239;-75
2022/05/05 03:46:41;;;;;;;13.05;9.23;;;;;;;9.48;nan;95505.59;5006486;28;20286;-75
2022/05/05 03:49:08;;;;;;;14.77;9.88;;;;;;;9.66;nan;95498.44;5006335;28;20267;-75
2022/05/05 03:51:35;;;;;;;15.35;9.30;;;;;;;9.82;nan;95497.22;5006879;28;20204;-75
2022/05/05 03:54:03;;;;;;;13.50;9.25;;;;;;;9.79;nan;95497.31;5004668;28;20207;-75
2022/05/05 03:56:30;;;;;;;17.10;9.95;;;;;;;9.82;nan;95482.84;5005542;28;20304;-75
2022/05/05 03:58:57;;;;;;;16.23;9.45;;;;;;;10.02;nan;95502.66;5006843;28;20257;-75
2022/05/05 04:01:23;;;;;;;19.25;10.68;;;;;;;9.82;nan;95502.31;5004675;28;20297;-76
2022/05/05 04:03:50;;;;;;;20.67;10.98;;;;;;;9.72;nan;95504.22;5005080;28;20203;-75
2022/05/05 04:06:18;;;;;;;16.63;10.15;;;;;;;9.43;nan;95514.19;5004548;28;20208;-74
2022/05/05 04:08:45;;;;;;;21.27;10.88;;;;;;;9.66;nan;95513.66;5004366;28;20232;-76
2022/05/05 04:11:13;;;;;;;64.45;34.75;;;;;;;9.82;nan;95523.44;5005681;28;20208;-75
2022/05/05 04:13:40;;;;;;;31.52;17.85;;;;;;;9.83;nan;95522.59;5006455;28;20210;-75
2022/05/05 04:16:07;;;;;;;19.42;12.05;;;;;;;10.06;nan;95532.19;5006799;28;20232;-75
2022/05/05 04:18:35;;;;;;;16.70;11.00;;;;;;;10.13;nan;95535.44;5004690;28;20634;-75
2022/05/05 04:21:01;;;;;;;16.38;9.75;;;;;;;10.17;nan;95537.00;5003773;28;20286;-74
2022/05/05 04:23:29;;;;;;;23.33;11.20;;;;;;;10.11;nan;95534.63;5004701;28;20285;-74
2022/05/05 04:25:56;;;;;;;20.20;10.63;;;;;;;10.16;nan;95538.69;5011731;28;20223;-75
2022/05/05 04:28:24;;;;;;;19.15;11.27;;;;;;;9.93;nan;95530.78;5013846;28;20212;-75
2022/05/05 04:30:51;;;;;;;16.92;10.15;;;;;;;9.81;nan;95539.56;5003596;28;20223;-75
2022/05/05 04:33:18;;;;;;;14.50;9.70;;;;;;;10.04;nan;95541.56;5005630;28;20224;-76
2022/05/05 04:35:45;;;;;;;19.00;12.13;;;;;;;10.17;nan;95548.00;5003857;28;20231;-75
2022/05/05 04:38:12;;;;;;;44.30;21.00;;;;;;;10.23;nan;95544.50;5004642;28;20200;-75
2022/05/05 04:40:39;;;;;;;29.75;16.10;;;;;;;10.36;nan;95543.34;5005945;28;20294;-76
2022/05/05 04:43:06;;;;;;;30.45;12.63;;;;;;;10.55;nan;95549.63;5003076;28;20285;-74
2022/05/05 04:45:34;;;;;;;18.15;10.25;;;;;;;10.66;nan;95535.78;5005621;28;20208;-75
2022/05/05 04:48:01;;;;;;;22.65;10.98;;;;;;;10.44;nan;95545.66;5004305;28;20808;-72
2022/05/05 04:50:28;;;;;;;33.65;11.30;;;;;;;10.52;nan;95543.78;5004575;28;20227;-73
2022/05/05 04:52:55;;;;;;;20.27;11.27;;;;;;;10.42;nan;95542.34;5003910;28;20295;-73
2022/05/05 04:55:22;;;;;;;17.67;10.68;;;;;;;10.46;nan;95543.94;5004988;28;20711;-74
2022/05/05 04:57:49;;;;;;;17.40;10.73;;;;;;;10.45;nan;95543.09;5003148;28;20208;-73
2022/05/05 05:00:17;;;;;;;12.82;9.65;;;;;;;10.55;nan;95538.63;5003613;28;20203;-74
2022/05/05 05:02:45;;;;;;;14.20;9.77;;;;;;;10.38;nan;95550.94;5003770;28;20590;-74
2022/05/05 05:05:11;;;;;;;19.15;10.40;;;;;;;10.23;nan;95552.13;5006297;28;20274;-74
2022/05/05 05:07:38;;;;;;;26.40;11.70;;;;;;;10.09;nan;95552.44;5004213;28;20286;-74
2022/05/05 05:10:06;;;;;;;42.25;17.02;;;;;;;10.04;nan;95545.78;5004555;28;20739;-74
2022/05/05 05:12:33;;;;;;;43.03;25.63;;;;;;;10.40;nan;95550.00;5003279;28;20207;-75
2022/05/05 05:15:00;;;;;;;46.80;15.52;;;;;;;10.60;nan;95546.97;5002897;28;20195;-74
2022/05/05 05:17:27;;;;;;;21.30;12.55;;;;;;;10.40;nan;95544.06;5004177;28;20281;-74
2022/05/05 05:19:55;;;;;;;23.50;13.05;;;;;;;10.12;nan;95549.84;5004947;28;20274;-74
2022/05/05 05:22:22;;;;;;;21.83;12.23;;;;;;;10.27;nan;95555.44;5002374;28;20224;-74
2022/05/05 05:24:49;;;;;;;21.02;12.23;;;;;;;10.25;nan;95552.09;5002405;28;20285;-74
2022/05/05 05:27:15;;;;;;;21.00;13.07;;;;;;;10.36;nan;95555.22;5004488;28;20689;-75
2022/05/05 05:29:42;;;;;;;17.77;12.85;;;;;;;10.45;nan;95547.34;5003621;28;20227;-75
2022/05/05 05:32:09;;;;;;;17.33;11.35;;;;;;;10.74;nan;95544.88;5003603;28;20207;-73
2022/05/05 05:34:36;;;;;;;18.63;11.52;;;;;;;10.91;nan;95546.97;5003779;28;20215;-74
2022/05/05 05:37:05;;;;;;;17.67;11.90;;;;;;;10.86;nan;95557.28;5003327;28;20210;-73
2022/05/05 05:39:32;;;;;;;20.48;13.02;;;;;;;10.94;nan;95566.41;5004274;28;20209;-74
2022/05/05 05:41:58;;;;;;;18.67;13.13;;;;;;;11.20;nan;95564.81;5002197;28;20242;-74
2022/05/05 05:44:25;;;;;;;17.55;13.45;;;;;;;11.36;nan;95572.03;5003513;28;20302;-74
2022/05/05 05:46:52;;;;;;;17.33;12.93;;;;;;;11.37;nan;95566.06;5003306;28;20235;-74
2022/05/05 05:49:19;;;;;;;16.77;12.80;;;;;;;11.26;nan;95561.25;5003265;28;20358;-74
2022/05/05 05:51:46;;;;;;;19.80;13.93;;;;;;;11.13;nan;95572.69;5002882;28;20632;-74
2022/05/05 05:54:14;;;;;;;14.57;12.35;;;;;;;11.08;nan;95566.88;5004687;28;20208;-74
2022/05/05 05:56:42;;;;;;;20.70;12.43;;;;;;;11.32;nan;95568.72;5003958;28;20987;-74
2022/05/05 05:59:08;;;;;;;15.68;11.15;;;;;;;11.42;nan;95570.13;5001718;28;20780;-74
2022/05/05 06:04:20;;;;;;;16.02;13.77;;;;;;;11.38;nan;95553.31;5005830;28;20206;-73
2022/05/05 06:06:47;;;;;;;20.85;12.95;;;;;;;11.22;nan;95567.31;5009018;28;20659;-73
2022/05/05 06:09:15;;;;;;;22.48;14.90;;;;;;;11.42;nan;95567.56;5005554;28;20231;-74
2022/05/05 06:11:42;;;;;;;18.85;13.45;;;;;;;11.74;nan;95566.63;5003397;28;20229;-73
2022/05/05 06:14:09;;;;;;;17.15;14.32;;;;;;;11.58;nan;95570.53;5004043;28;20200;-74
2022/05/05 06:16:36;;;;;;;18.42;13.90;;;;;;;11.44;nan;95565.81;5004139;28;20587;-74
2022/05/05 06:19:02;;;;;;;25.15;16.13;;;;;;;11.72;nan;95570.94;5006967;28;20231;-74
2022/05/05 06:21:30;;;;;;;20.05;14.55;;;;;;;11.67;nan;95569.41;5001917;28;20204;-73
2022/05/05 06:23:56;;;;;;;22.05;15.27;;;;;;;12.01;nan;95570.09;5005992;28;20642;-74
2022/05/05 06:26:27;;;;;;;30.70;15.70;;;;;;;12.27;nan;95562.47;5002474;28;20785;-73
2022/05/05 06:28:54;;;;;;;20.38;15.27;;;;;;;12.67;nan;95561.13;5002822;28;20663;-73
2022/05/05 06:31:21;;;;;;;104.13;52.25;;;;;;;12.93;nan;95560.25;5003789;28;21365;-74
2022/05/05 06:33:49;;;;;;;79.65;46.17;;;;;;;13.25;nan;95549.78;5001444;28;20253;-75
2022/05/05 06:36:16;;;;;;;36.33;24.00;;;;;;;13.77;nan;95559.78;5003500;28;20208;-73
2022/05/05 06:38:43;;;;;;;34.65;23.95;;;;;;;14.05;nan;95560.38;5006446;28;20206;-73
2022/05/05 06:41:10;;;;;;;25.52;17.25;;;;;;;14.02;nan;95552.84;5005353;28;20850;-75
2022/05/05 06:43:38;;;;;;;24.52;17.98;;;;;;;14.36;nan;95551.47;5007464;28;20207;-74
2022/05/05 06:46:04;;;;;;;43.47;20.55;;;;;;;14.88;nan;95561.25;5005227;28;20203;-74
2022/05/05 06:48:32;;;;;;;25.35;18.23;;;;;;;15.51;nan;95567.03;5006549;28;20211;-75
2022/05/05 06:50:58;;;;;;;25.73;17.98;;;;;;;16.61;nan;95556.72;5004273;28;20227;-75
2022/05/05 06:53:25;;;;;;;30.40;19.85;;;;;;;17.39;nan;95555.38;5004201;28;20281;-76
2022/05/05 06:55:55;;;;;;;27.15;18.00;;;;;;;17.76;nan;95569.72;5004399;28;20210;-75
2022/05/05 06:58:22;;;;;;;25.88;17.35;;;;;;;18.03;nan;95565.66;5004852;28;20739;-75
2022/05/05 07:03:34;;;;;;;22.55;15.57;;;;;;;19.87;nan;95559.19;5006176;28;20338;-74
2022/05/05 07:06:01;;;;;;;19.17;16.17;;;;;;;20.80;nan;95566.97;5005410;28;20200;-76
2022/05/05 07:10:52;;;;;;;24.85;17.45;;;;;;;20.88;nan;95556.97;5006660;28;20305;-77
2022/05/05 07:11:15;;;;;;;23.25;17.25;;;;;;;20.43;nan;95557.38;5004186;28;21118;-75
2022/05/05 07:13:41;;;;;;;20.92;17.88;;;;;;;20.31;nan;95554.63;5004464;28;20696;-75
2022/05/05 07:16:09;;;;;;;26.33;18.23;;;;;;;20.03;nan;95560.72;5005542;28;20591;-75
2022/05/05 07:18:36;;;;;;;25.75;19.05;;;;;;;19.36;nan;95564.00;5006848;28;20336;-75
2022/05/05 07:21:03;;;;;;;23.20;18.10;;;;;;;19.11;nan;95559.47;5004000;28;20706;-76
2022/05/05 07:23:30;;;;;;;26.55;18.58;;;;;;;18.66;nan;95557.81;5004069;28;20205;-75
2022/05/05 07:25:56;;;;;;;21.48;18.55;;;;;;;18.38;nan;95557.69;5005001;28;20626;-75
2022/05/05 07:28:23;;;;;;;23.65;20.35;;;;;;;19.12;nan;95550.00;5004772;28;20270;-75
2022/05/05 07:30:50;;;;;;;25.02;21.30;;;;;;;19.26;nan;95550.00;5014473;28;20282;-75
2022/05/05 07:33:20;;;;;;;36.65;24.38;;;;;;;19.00;nan;95557.53;5013023;28;20628;-75
2022/05/05 07:35:47;;;;;;;31.23;23.58;;;;;;;18.44;nan;95554.78;5006002;28;20200;-74
2022/05/05 07:38:14;;;;;;;29.88;21.80;;;;;;;18.13;nan;95564.22;5004621;28;21298;-75
2022/05/05 07:40:41;;;;;;;34.40;22.42;;;;;;;17.93;nan;95561.91;5006409;28;20232;-75
2022/05/05 07:43:09;;;;;;;29.90;22.90;;;;;;;18.15;nan;95567.53;5006173;28;20231;-76
2022/05/05 07:45:35;;;;;;;30.27;21.15;;;;;;;18.06;nan;95562.91;5004401;28;20589;-74
2022/05/05 07:48:02;;;;;;;36.90;22.60;;;;;;;18.39;nan;95560.19;5005808;28;20290;-74
2022/05/05 07:50:31;;;;;;;29.58;20.92;;;;;;;18.91;nan;95560.63;5005269;28;20935;-75
2022/05/05 07:52:57;;;;;;;32.28;23.42;;;;;;;19.40;nan;95555.16;5004029;28;20246;-74
2022/05/05 07:55:24;;;;;;;31.60;21.08;;;;;;;19.59;nan;95565.19;5006559;28;20211;-75
2022/05/05 07:57:51;;;;;;;30.88;22.63;;;;;;;18.98;nan;95561.94;5004489;28;20231;-74
2022/05/05 08:00:18;;;;;;;32.03;23.73;;;;;;;18.81;nan;95571.56;5004727;28;20215;-75
2022/05/05 08:02:45;;;;;;;30.33;21.45;;;;;;;18.55;nan;95571.28;5002266;28;20966;-75
2022/05/05 08:05:13;;;;;;;28.92;21.42;;;;;;;18.61;nan;95570.13;5005714;28;20196;-75
2022/05/05 08:07:45;;;;;;;25.10;19.95;;;;;;;18.67;nan;95569.78;5004414;28;20204;-75
2022/05/05 08:10:12;;;;;;;21.92;17.73;;;;;;;18.77;nan;95576.06;5004213;28;20329;-74
2022/05/05 08:12:39;;;;;;;25.63;18.52;;;;;;;19.27;nan;95574.88;5004240;28;20218;-75
2022/05/05 08:15:08;;;;;;;22.60;17.95;;;;;;;19.83;nan;95573.19;5005260;28;20293;-75
2022/05/05 08:17:35;;;;;;;26.83;19.35;;;;;;;19.81;nan;95568.13;5005007;28;20207;-74
2022/05/05 08:20:02;;;;;;;36.08;20.08;;;;;;;20.06;nan;95564.84;5004604;28;20199;-74
2022/05/05 08:22:29;;;;;;;27.05;19.20;;;;;;;20.08;nan;95562.16;5003046;28;20199;-75
2022/05/05 08:30:25;;;;;;;24.50;18.25;;;;;;;20.54;nan;95550.59;5005466;28;20674;-74
2022/05/05 08:32:52;;;;;;;29.25;18.75;;;;;;;19.99;nan;95555.84;5004018;28;20216;-75
2022/05/05 08:35:19;;;;;;;24.73;16.92;;;;;;;19.76;nan;95556.44;5003069;28;20285;-75
2022/05/05 08:37:46;;;;;;;32.35;18.27;;;;;;;19.57;nan;95556.72;5003981;28;20208;-75
2022/05/05 08:40:14;;;;;;;112.53;65.85;;;;;;;19.46;nan;95556.53;5006495;28;20203;-74
2022/05/05 08:42:41;;;;;;;38.78;24.27;;;;;;;19.46;nan;95551.38;5004782;28;20283;-75
2022/05/05 08:45:09;;;;;;;21.67;17.30;;;;;;;19.60;nan;95546.22;5004861;28;20761;-76
2022/05/05 08:47:37;;;;;;;24.60;17.05;;;;;;;19.75;nan;95547.06;5003532;28;20200;-75
2022/05/05 08:50:08;;;;;;;27.40;17.35;;;;;;;19.86;nan;95547.19;5005504;28;20238;-75
2022/05/05 08:52:37;;;;;;;29.60;19.15;;;;;;;19.62;nan;95542.66;5005033;28;20207;-76
2022/05/05 08:55:04;;;;;;;24.65;18.35;;;;;;;19.96;nan;95543.97;5006166;28;20235;-74
2022/05/05 08:57:33;;;;;;;23.90;17.17;;;;;;;20.50;nan;95546.56;5006094;28;20262;-75
2022/05/05 08:59:59;;;;;;;22.85;16.92;;;;;;;20.61;nan;95553.59;5004110;28;20208;-76
2022/05/05 09:02:26;;;;;;;24.95;17.45;;;;;;;20.51;nan;95544.81;5003276;28;20235;-74
2022/05/05 09:04:53;;;;;;;27.52;18.73;;;;;;;20.46;nan;95552.03;5005840;28;20228;-76
2022/05/05 09:07:19;;;;;;;25.80;19.27;;;;;;;20.58;nan;95540.88;5004617;28;20761;-75
2022/05/05 09:09:49;;;;;;;22.50;18.08;;;;;;;20.77;nan;95536.19;5003562;28;20196;-75
2022/05/05 09:12:17;;;;;;;23.17;19.42;;;;;;;20.95;nan;95540.13;5005481;28;20628;-75
2022/05/05 09:14:48;;;;;;;23.00;17.67;;;;;;;20.90;nan;95542.19;5002672;28;20289;-75
2022/05/05 09:17:17;;;;;;;26.40;18.48;;;;;;;21.08;nan;95537.53;5001754;28;20297;-74
2022/05/05 09:19:46;;;;;;;19.85;16.25;;;;;;;21.20;nan;95539.34;5006096;28;20582;-74
2022/05/05 09:22:15;;;;;;;22.77;15.20;;;;;;;21.24;nan;95537.38;5003039;28;20366;-74
2022/05/05 09:24:45;;;;;;;19.05;15.75;;;;;;;21.40;nan;95535.38;5003635;28;20308;-73
2022/05/05 09:27:19;;;;;;;20.00;15.10;;;;;;;21.32;nan;95532.50;5003629;28;20590;-74
2022/05/05 09:30:09;;;;;;;14.18;12.60;;;;;;;21.20;nan;95525.56;5000459;28;20199;-73
2022/05/05 09:32:38;;;;;;;14.68;12.10;;;;;;;21.22;nan;95528.88;5003155;28;20290;-74
2022/05/05 09:35:08;;;;;;;18.27;11.50;;;;;;;21.19;nan;95522.13;5003468;28;20207;-75
2022/05/05 09:37:36;;;;;;;12.70;11.40;;;;;;;21.43;nan;95530.00;5004821;28;20199;-73
2022/05/05 09:40:06;;;;;;;14.85;12.25;;;;;;;21.73;nan;95522.72;5003833;28;20214;-75
2022/05/05 09:42:37;;;;;;;14.48;12.15;;;;;;;22.03;nan;95529.25;5003634;28;20242;-74
2022/05/05 09:45:20;;;;;;;14.88;12.15;;;;;;;22.35;nan;95527.75;5002780;28;20203;-74
2022/05/05 09:47:50;;;;;;;15.60;12.63;;;;;;;22.21;nan;95521.94;5006474;28;20269;-73
2022/05/05 09:50:19;;;;;;;16.67;12.50;;;;;;;22.10;nan;95514.94;5002932;28;20242;-74
2022/05/05 09:58:19;;;;;;;14.30;12.80;;;;;;;21.42;nan;95514.59;5001454;28;20257;-75
2022/05/05 10:01:05;;;;;;;12.07;8.10;;;;;;;21.19;nan;95510.97;4999566;28;20211;-73
2022/05/05 10:06:31;;;;;;;7.70;7.00;;;;;;;21.46;nan;95509.13;5001530;28;20262;-73
2022/05/05 10:09:02;;;;;;;8.18;6.53;;;;;;;21.74;nan;95497.66;5010156;28;20204;-73
2022/05/05 10:11:30;;;;;;;8.02;6.57;;;;;;;21.94;nan;95501.41;5010061;28;20220;-74
2022/05/05 10:13:57;;;;;;;4.93;4.53;;;;;;;21.81;nan;95500.63;5010899;28;20665;-73
2022/05/05 10:16:26;;;;;;;7.95;5.18;;;;;;;21.85;nan;95496.88;5011323;28;20236;-74
2022/05/05 10:18:53;;;;;;;5.07;4.57;;;;;;;21.96;nan;95504.72;5016104;28;20647;-74
2022/05/05 10:21:49;;;;;;;5.97;3.80;;;;;;;22.18;nan;95511.81;5032271;28;20270;-74
2022/05/05 10:24:20;;;;;;;2.72;2.53;;;;;;;21.94;nan;95499.66;5019169;28;20203;-73
2022/05/05 10:26:51;;;;;;;3.58;2.80;;;;;;;22.03;nan;95509.38;5032328;28;20257;-73
2022/05/05 10:29:38;;;;;;;2.88;2.67;;;;;;;22.35;nan;95509.63;5021381;28;20197;-73
2022/05/05 10:32:11;;;;;;;2.65;2.40;;;;;;;22.20;nan;95515.94;5011104;28;20376;-73
2022/05/05 10:34:39;;;;;;;2.85;2.25;;;;;;;22.21;nan;95509.81;5011463;28;20209;-73
2022/05/05 10:37:08;;;;;;;2.67;2.47;;;;;;;22.30;nan;95511.72;5009620;28;20287;-73
2022/05/05 10:39:49;;;;;;;2.70;2.53;;;;;;;22.81;nan;95506.28;5008960;28;20314;-74
2022/05/05 10:42:18;;;;;;;2.85;2.65;;;;;;;22.82;nan;95502.75;5009653;28;20196;-73
2022/05/05 10:45:12;;;;;;;2.00;1.90;;;;;;;22.99;nan;95504.91;5010903;28;20209;-74
2022/05/05 10:48:17;;;;;;;2.55;2.17;;;;;;;22.82;nan;95505.34;5012296;28;20199;-74
2022/05/05 10:50:56;;;;;;;2.58;2.30;;;;;;;23.13;nan;95503.03;5032656;28;20266;-73
2022/05/05 10:53:41;;;;;;;2.58;2.42;;;;;;;22.71;nan;95502.69;5031134;28;20195;-73
2022/05/05 10:56:29;;;;;;;2.35;2.25;;;;;;;23.01;nan;95497.03;5013145;28;20200;-73
2022/05/05 10:59:04;;;;;;;2.28;2.15;;;;;;;23.17;nan;95497.50;5012539;28;20267;-73
2022/05/05 11:01:45;;;;;;;2.70;2.50;;;;;;;23.00;nan;95495.38;5012839;28;20287;-73
2022/05/05 11:04:32;;;;;;;2.72;2.47;;;;;;;22.16;nan;95509.31;5012478;28;20204;-74
2022/05/05 11:07:31;;;;;;;2.45;2.33;;;;;;;21.58;nan;95505.66;5012945;28;20200;-73
2022/05/05 11:10:00;;;;;;;2.00;1.90;;;;;;;21.12;nan;95510.56;5013060;28;20197;-73
2022/05/05 11:12:32;;;;;;;3.22;3.05;;;;;;;20.87;nan;95508.78;5013161;28;20228;-73
2022/05/05 11:23:40;;;;;;;2.55;2.10;;;;;;;21.41;nan;95500.00;5013013;28;20266;-73
2022/05/05 11:26:08;;;;;;;2.25;2.05;;;;;;;21.59;nan;95504.72;5031839;28;20219;-73
2022/05/05 11:28:36;;;;;;;2.42;2.22;;;;;;;21.69;nan;95507.50;5029207;28;20246;-73
2022/05/05 11:31:02;;;;;;;2.00;1.90;;;;;;;21.83;nan;95506.50;5012354;28;20617;-73
2022/05/05 11:33:29;;;;;;;2.42;2.22;;;;;;;22.01;nan;95506.09;5012151;28;20239;-73
2022/05/05 11:36:02;;;;;;;2.65;2.45;;;;;;;22.18;nan;95501.44;5012729;28;20193;-73
2022/05/05 11:38:29;;;;;;;2.28;2.00;;;;;;;22.03;nan;95498.19;5011784;28;20204;-73
2022/05/05 11:41:06;;;;;;;2.45;2.30;;;;;;;22.66;nan;95497.03;5012220;28;20664;-73
2022/05/05 11:46:19;;;;;;;2.33;2.22;;;;;;;23.62;nan;95490.53;5012377;28;20588;-74
2022/05/05 11:48:53;;;;;;;3.13;2.42;;;;;;;23.27;nan;95497.59;5015076;28;20613;-73
2022/05/05 11:51:25;;;;;;;2.22;2.13;;;;;;;22.69;nan;95491.63;5031871;28;20314;-74
2022/05/05 11:54:06;;;;;;;4.60;2.58;;;;;;;22.46;nan;95495.09;5026143;28;20200;-74
2022/05/05 11:56:36;;;;;;;3.55;3.33;;;;;;;22.79;nan;95484.81;5011842;28;20346;-74
2022/05/05 12:02:05;;;;;;;2.75;2.55;;;;;;;23.37;nan;95481.22;5011886;28;20211;-73
2022/05/05 12:04:33;;;;;;;2.28;2.15;;;;;;;22.74;nan;95473.97;5011546;28;20294;-74
2022/05/05 12:07:00;;;;;;;2.80;2.60;;;;;;;22.50;nan;95480.97;5011986;28;20200;-74
2022/05/05 12:09:27;;;;;;;2.15;2.00;;;;;;;22.64;nan;95475.59;5020272;28;20672;-74
2022/05/05 12:11:56;;;;;;;2.00;1.90;;;;;;;22.33;nan;95479.59;5031290;28;20227;-74
2022/05/05 12:14:23;;;;;;;3.33;2.10;;;;;;;22.22;nan;95482.16;5021009;28;20200;-74
2022/05/05 12:16:52;;;;;;;4.85;2.70;;;;;;;22.52;nan;95473.94;5011681;28;20259;-74
2022/05/05 12:19:21;;;;;;;2.55;1.75;;;;;;;22.53;nan;95478.13;5028752;28;20196;-74
2022/05/05 12:21:53;;;;;;;3.08;2.70;;;;;;;21.93;nan;95479.06;5018165;28;20204;-74
2022/05/05 12:24:22;;;;;;;2.03;1.92;;;;;;;21.88;nan;95481.16;5011072;28;20220;-74
2022/05/05 12:26:49;;;;;;;2.30;2.10;;;;;;;21.38;nan;95482.94;5011015;28;20200;-74
2022/05/05 12:29:20;;;;;;;2.72;2.63;;;;;;;21.34;nan;95484.09;5017112;28;20275;-74
2022/05/05 12:31:55;;;;;;;2.05;1.95;;;;;;;21.18;nan;95473.13;5011172;28;20239;-74